• Join FlightAware (Why Join?)
  • Login
  • US Flag 
10:42PM EDT


 

Airport Tracker/Info


-or-


 

Live Flight TrackerFlight Track Log ✈ EGF4248 ✈ 20-Apr-2012 ✈ KDSM - KORD

Flight Track Log - Related Links

Times and Time Zones

All times are in EDT time to prevent confusion due to time zone crossing. See the EGF4248 flight status page for this flight to view local times or setup timezone preferences in your user account.

Time Position Orientation Groundspeed Altitude Reporting Facility
EDT Latitude Longitude Course Direction KTS MPH feet Rate Location/Type
09:22PM 41.5370 -93.6315 306° West  Level FlightAware Approximate
09:23PM 41.5742 -93.6992 22° Northeast 182 209 3,700  Level Minneapolis Center
09:24PM 41.6242 -93.6717 72° East 240 276 6,700 2,460 Climbing Minneapolis Center
09:26PM 41.6769 -93.4481 68° East 278 320 12,200 2,160 Climbing Chicago Center
09:27PM 41.7125 -93.3281 71° East 312 359 14,200 2,100 Climbing Chicago Center
09:28PM 41.7486 -93.1883 65° Northeast 336 387 16,500 2,100 Climbing Chicago Center
09:29PM 41.7900 -93.0708 74° East 355 409 18,400 1,920 Climbing Chicago Center
09:30PM 41.8194 -92.9333 71° East 365 420 20,400 1,980 Climbing Chicago Center
09:31PM 41.8547 -92.7958 69° East 372 428 22,400 1,980 Climbing Chicago Center
09:32PM 41.8922 -92.6611 70° East 377 434 24,400 1,980 Climbing Chicago Center
09:33PM 41.9294 -92.5261 70° East 382 440 26,400 1,260 Climbing Chicago Center
09:34PM 41.9664 -92.3911 70° East 382 440 27,000 300 Climbing Chicago Center
09:35PM 42.0056 -92.2450 70° East 393 452 27,000  Level Chicago Center
09:36PM 42.0447 -92.0958 71° East 406 467 27,000  Level Chicago Center
09:37PM 42.0814 -91.9544 69° East 428 493 27,000  Level Chicago Center
09:38PM 42.1242 -91.8022 71° East 434 499 27,000  Level Chicago Center
09:39PM 42.1631 -91.6469 71° East 439 505 27,000  Level Chicago Center
09:40PM 42.2033 -91.4914 71° East 439 505 27,000  Level Chicago Center
09:41PM 42.2417 -91.3383 70° East 439 505 27,000  Level Chicago Center
09:42PM 42.2839 -91.1797 71° East 439 505 27,000  Level Chicago Center
09:43PM 42.3258 -91.0181 72° East 439 505 27,000  Level Chicago Center
09:44PM 42.3658 -90.8533 77° East 439 505 27,000 -300 Level Chicago Center
09:45PM 42.3950 -90.6853 87° East 445 512 26,500 -1,140 Descending Chicago Center
09:46PM 42.4011 -90.4942 87° East 463 533 24,800 -1,380 Descending Chicago Center
09:47PM 42.4069 -90.3256 87° East 458 527 23,800 -1,440 Descending Chicago Center
09:48PM 42.4122 -90.1597 86° East 452 520 22,000 -1,860 Descending Chicago Center
09:49PM 42.4217 -89.9939 90° East 445 512 20,100 -1,620 Descending Chicago Center
09:50PM 42.4222 -89.8533 86° East 426 490 18,800 -1,320 Descending Chicago Center
09:51PM 42.4292 -89.7014 88° East 412 474 17,500 -1,440 Descending Chicago Center
09:52PM 42.4336 -89.5467 87° East 406 467 16,000 -1,500 Descending Chicago Center
09:53PM 42.4400 -89.3978 93° East 401 461 14,600 -1,500 Descending Chicago Center
09:54PM 42.4339 -89.2514 96° East 396 456 13,100 -1,320 Descending Chicago Center
09:55PM 42.4231 -89.1164 97° East 380 437 12,000 -540 Descending Chicago Center
09:56PM 42.4125 -88.9983 95° East 331 381 12,100 -360 Climbing Chicago Center
09:57PM 42.4058 -88.8858 96° East 308 354 11,300 -900 Descending Chicago Center
09:58PM 42.3969 -88.7736 96° East 308 354 10,300 -1,020 Descending Chicago Center
09:59PM 42.3881 -88.6639 96° East 303 349 9,300 -660 Descending Chicago Center
10:00PM 42.3789 -88.5544 108° East 291 335 9,000 -300 Descending Chicago Center
10:01PM 42.3553 -88.4564 162° South 291 335 8,800 -900 Descending Chicago Center
10:02PM 42.2739 -88.4211 160° South 309 356 7,200 -900 Descending Chicago Center
10:03PM 42.1983 -88.3831 170° South 304 350 7,000 -240 Descending Chicago Center
10:04PM 42.1233 -88.3644 170° South 293 337 6,800 -900 Descending Chicago Center
10:05PM 42.0439 -88.3461 137° Southeast 288 331 5,300 -720 Descending Chicago Center
10:07PM 41.9667 -88.2500 90° East 241 277 5,000 -360 Descending Chicago TRACON
10:08PM 41.9667 -88.1833 90° East 212 244 4,500 -900 Descending Chicago TRACON
10:09PM 41.9667 -88.1000 90° East 166 191 3,300 -900 Descending Chicago TRACON
10:10PM 41.9667 -88.0500 90° East 160 184 2,800 -600 Descending Chicago TRACON